createdAt,value
2023-03-22T00:00:15.696Z,9.37
2023-03-22T00:02:42.646Z,9.29
2023-03-22T00:05:10.058Z,9.21
2023-03-22T00:07:38.943Z,9.12
2023-03-22T00:10:06.385Z,9.04
2023-03-22T00:12:33.686Z,8.96
2023-03-22T00:15:01.544Z,8.94
2023-03-22T00:17:28.652Z,8.92
2023-03-22T00:19:55.598Z,8.91
2023-03-22T00:22:27.350Z,8.92
2023-03-22T00:24:54.176Z,8.93
2023-03-22T00:27:21.874Z,8.97
2023-03-22T00:29:48.860Z,8.99
2023-03-22T00:32:16.215Z,8.97
2023-03-22T00:34:43.218Z,9.00
2023-03-22T00:37:10.191Z,9.04
2023-03-22T00:39:37.112Z,9.07
2023-03-22T00:42:05.946Z,9.11
2023-03-22T00:44:33.181Z,9.13
2023-03-22T00:47:00.246Z,9.13
2023-03-22T00:49:27.805Z,9.12
2023-03-22T00:51:55.721Z,9.13
2023-03-22T00:54:22.877Z,9.13
2023-03-22T00:56:50.103Z,9.15
2023-03-22T00:59:17.652Z,9.16
2023-03-22T01:01:44.969Z,9.17
2023-03-22T01:04:18.244Z,9.19
2023-03-22T01:06:48.152Z,9.20
2023-03-22T01:09:15.232Z,9.23
2023-03-22T01:11:43.980Z,9.22
2023-03-22T01:14:14.161Z,9.21
2023-03-22T01:16:41.138Z,9.20
2023-03-22T01:19:09.451Z,9.16
2023-03-22T01:21:36.832Z,9.13
2023-03-22T01:24:04.203Z,9.12
2023-03-22T01:26:33.695Z,9.09
2023-03-22T01:29:01.124Z,9.02
2023-03-22T01:31:27.961Z,8.95
2023-03-22T01:33:54.903Z,8.95
2023-03-22T01:36:22.944Z,8.90
2023-03-22T01:38:49.824Z,8.85
2023-03-22T01:41:17.365Z,8.82
2023-03-22T01:43:46.351Z,8.80
2023-03-22T01:46:13.383Z,8.81
2023-03-22T01:48:46.375Z,8.81
2023-03-22T01:51:22.605Z,8.80
2023-03-22T01:54:22.113Z,8.77
2023-03-22T01:56:51.012Z,8.77
2023-03-22T01:59:28.096Z,8.73
2023-03-22T02:02:24.942Z,8.73
2023-03-22T02:05:04.261Z,8.69
2023-03-22T02:07:32.394Z,8.66
2023-03-22T02:10:02.040Z,8.64
2023-03-22T02:12:46.501Z,8.63
2023-03-22T02:15:37.732Z,8.60
2023-03-22T02:18:48.096Z,8.58
2023-03-22T02:21:53.623Z,8.63
2023-03-22T02:24:47.266Z,8.59
2023-03-22T02:27:40.626Z,8.57
2023-03-22T02:30:26.394Z,8.51
2023-03-22T02:33:20.759Z,8.50
2023-03-22T02:36:03.187Z,8.45
2023-03-22T02:38:42.700Z,8.41
2023-03-22T02:41:14.773Z,8.38
2023-03-22T02:44:05.327Z,8.34
2023-03-22T02:46:48.674Z,8.26
2023-03-22T02:49:22.634Z,8.19
2023-03-22T02:52:02.447Z,8.11
2023-03-22T02:54:38.557Z,8.05
2023-03-22T02:57:14.211Z,8.00
2023-03-22T02:59:43.518Z,7.95
2023-03-22T03:02:13.596Z,7.99
2023-03-22T03:04:46.823Z,8.01
2023-03-22T03:07:19.398Z,8.04
2023-03-22T03:09:48.382Z,8.09
2023-03-22T03:12:21.256Z,8.15
2023-03-22T03:14:48.500Z,8.19
2023-03-22T03:17:48.390Z,8.26
2023-03-22T03:20:34.511Z,8.30
2023-03-22T03:23:31.380Z,8.31
2023-03-22T03:26:13.733Z,8.32
2023-03-22T03:28:57.100Z,8.37
2023-03-22T03:31:48.797Z,8.40
2023-03-22T03:34:22.566Z,8.41
2023-03-22T03:36:56.936Z,8.40
2023-03-22T03:39:27.907Z,8.39
2023-03-22T03:41:56.901Z,8.43
2023-03-22T03:44:25.250Z,8.45
2023-03-22T03:46:54.078Z,8.50
2023-03-22T03:49:24.255Z,8.54
2023-03-22T03:51:56.253Z,8.59
2023-03-22T03:54:24.158Z,8.60
2023-03-22T03:56:51.288Z,8.65
2023-03-22T03:59:21.139Z,8.66
2023-03-22T04:01:52.771Z,8.66
2023-03-22T04:04:31.099Z,8.69
2023-03-22T04:07:11.968Z,8.72
2023-03-22T04:09:43.985Z,8.65
2023-03-22T04:12:23.776Z,8.57
2023-03-22T04:15:12.433Z,8.63
2023-03-22T04:17:41.032Z,8.64
2023-03-22T04:20:12.614Z,8.62
2023-03-22T04:22:42.294Z,8.60
2023-03-22T04:25:12.437Z,8.62
2023-03-22T04:27:51.590Z,8.62
2023-03-22T04:30:20.417Z,8.60
2023-03-22T04:33:15.544Z,8.59
2023-03-22T04:36:03.461Z,8.54
2023-03-22T04:38:40.658Z,8.56
2023-03-22T04:41:13.091Z,8.58
2023-03-22T04:43:47.203Z,8.58
2023-03-22T04:46:16.189Z,8.54
2023-03-22T04:49:04.927Z,8.51
2023-03-22T04:51:34.789Z,8.51
2023-03-22T04:54:20.100Z,8.49
2023-03-22T04:56:50.874Z,8.58
2023-03-22T04:59:20.809Z,8.59
2023-03-22T05:01:51.603Z,8.56
2023-03-22T05:04:24.051Z,8.63
2023-03-22T05:06:58.221Z,8.63
2023-03-22T05:09:35.480Z,8.65
2023-03-22T05:12:06.370Z,8.61
2023-03-22T05:14:44.171Z,8.57
2023-03-22T05:17:14.538Z,8.48
2023-03-22T05:19:41.827Z,8.51
2023-03-22T05:22:08.885Z,8.52
2023-03-22T05:24:44.875Z,8.51
2023-03-22T05:27:16.048Z,8.49
2023-03-22T05:29:46.003Z,8.49
2023-03-22T05:32:26.042Z,8.50
2023-03-22T05:34:56.790Z,8.49
2023-03-22T05:37:32.975Z,8.47
2023-03-22T05:40:02.646Z,8.56
2023-03-22T05:42:38.687Z,8.60
2023-03-22T05:45:16.478Z,8.55
2023-03-22T05:47:49.109Z,8.62
2023-03-22T05:50:23.819Z,8.63
2023-03-22T05:52:52.339Z,8.63
2023-03-22T05:55:32.190Z,8.65
2023-03-22T05:58:02.134Z,8.67
2023-03-22T06:00:33.926Z,8.69
2023-03-22T06:03:24.188Z,8.69
2023-03-22T06:05:56.860Z,8.72
2023-03-22T06:08:35.727Z,8.78
2023-03-22T06:11:03.902Z,8.79
2023-03-22T06:13:31.890Z,8.83
2023-03-22T06:16:03.524Z,8.85
2023-03-22T06:18:32.164Z,8.87
2023-03-22T06:21:07.382Z,8.88
2023-03-22T06:23:35.019Z,8.90
2023-03-22T06:26:01.975Z,8.91
2023-03-22T06:28:30.161Z,8.92
2023-03-22T06:30:58.838Z,8.95
2023-03-22T06:33:38.743Z,8.98
2023-03-22T06:36:17.352Z,9.07
2023-03-22T06:39:05.489Z,9.21
2023-03-22T06:41:33.173Z,9.34
2023-03-22T06:44:05.689Z,9.44
2023-03-22T06:46:45.107Z,9.48
2023-03-22T06:49:22.483Z,9.54
2023-03-22T06:51:52.062Z,9.58
2023-03-22T06:54:21.582Z,9.60
2023-03-22T06:56:49.393Z,9.63
2023-03-22T06:59:19.147Z,9.70
2023-03-22T07:01:46.339Z,9.72
2023-03-22T07:04:13.332Z,9.77
2023-03-22T07:06:43.140Z,9.81
2023-03-22T07:09:10.609Z,9.88
2023-03-22T07:11:38.259Z,9.94
2023-03-22T07:14:05.640Z,10.04
2023-03-22T07:17:03.507Z,10.09
2023-03-22T07:19:32.071Z,10.11
2023-03-22T07:22:03.804Z,10.11
2023-03-22T07:24:33.133Z,10.10
2023-03-22T07:27:02.281Z,10.12
2023-03-22T07:29:29.777Z,10.11
2023-03-22T07:31:59.612Z,10.10
2023-03-22T07:34:34.043Z,10.11
2023-03-22T07:37:09.763Z,10.10
2023-03-22T07:39:36.818Z,10.10
2023-03-22T07:42:10.568Z,10.11
2023-03-22T07:45:11.333Z,10.12
2023-03-22T07:47:45.306Z,10.15
2023-03-22T07:50:18.137Z,10.13
2023-03-22T07:52:49.516Z,10.13
2023-03-22T07:55:21.980Z,10.16
2023-03-22T07:57:49.030Z,10.21
2023-03-22T08:00:19.566Z,10.27
2023-03-22T08:02:56.730Z,10.35
2023-03-22T08:05:49.920Z,10.43
2023-03-22T08:08:18.785Z,10.49
2023-03-22T08:10:51.306Z,10.51
2023-03-22T08:13:18.507Z,10.52
2023-03-22T08:15:45.788Z,10.55
2023-03-22T08:18:12.819Z,10.60
2023-03-22T08:20:41.615Z,10.64
2023-03-22T08:23:16.406Z,10.69
2023-03-22T08:25:43.636Z,10.78
2023-03-22T08:28:13.473Z,10.88
2023-03-22T08:30:40.897Z,10.95
2023-03-22T08:33:10.067Z,11.00
2023-03-22T08:35:40.780Z,11.12
2023-03-22T08:38:08.297Z,11.20
2023-03-22T08:40:45.749Z,11.38
2023-03-22T08:43:12.982Z,11.53
2023-03-22T08:45:40.614Z,11.69
2023-03-22T08:48:15.705Z,11.80
2023-03-22T08:51:22.995Z,11.89
2023-03-22T08:54:04.535Z,11.97
2023-03-22T08:57:00.402Z,11.94
2023-03-22T08:59:40.188Z,11.94
2023-03-22T09:02:31.124Z,11.99
2023-03-22T09:05:03.601Z,12.07
2023-03-22T09:07:32.283Z,12.26
2023-03-22T09:10:12.163Z,12.27
2023-03-22T09:12:43.562Z,12.33
2023-03-22T09:15:11.380Z,12.41
2023-03-22T09:17:41.681Z,12.47
2023-03-22T09:20:12.896Z,12.50
2023-03-22T09:22:42.315Z,12.60
2023-03-22T09:25:12.981Z,12.69
2023-03-22T09:27:43.276Z,12.67
2023-03-22T09:30:11.412Z,12.74
2023-03-22T09:32:40.297Z,12.91
2023-03-22T09:35:08.112Z,13.18
2023-03-22T09:37:45.810Z,13.38
2023-03-22T09:40:15.886Z,13.58
2023-03-22T09:42:48.254Z,13.70
2023-03-22T09:45:20.855Z,13.84
2023-03-22T09:47:53.492Z,14.00
2023-03-22T09:50:24.280Z,14.11
2023-03-22T09:52:51.735Z,14.17
2023-03-22T09:55:31.085Z,14.20
2023-03-22T09:58:14.103Z,14.27
2023-03-22T10:00:48.429Z,14.23
2023-03-22T10:03:35.134Z,14.14
2023-03-22T10:06:09.307Z,14.13
2023-03-22T10:08:53.892Z,14.14
2023-03-22T10:11:26.347Z,14.36
2023-03-22T10:13:56.299Z,14.47
2023-03-22T10:16:33.385Z,14.59
2023-03-22T10:19:17.636Z,14.75
2023-03-22T10:21:46.767Z,15.02
2023-03-22T10:24:19.576Z,15.19
2023-03-22T10:26:48.658Z,15.34
2023-03-22T10:29:37.862Z,15.50
2023-03-22T10:32:13.524Z,15.72
2023-03-22T10:34:40.637Z,15.79
2023-03-22T10:37:13.847Z,15.67
2023-03-22T10:39:46.514Z,15.64
2023-03-22T10:42:18.312Z,15.68
2023-03-22T10:44:57.616Z,15.59
2023-03-22T10:47:33.417Z,15.41
2023-03-22T10:50:04.901Z,15.46
2023-03-22T10:52:43.852Z,15.75
2023-03-22T10:55:13.553Z,15.89
2023-03-22T10:57:43.439Z,16.22
2023-03-22T11:00:17.749Z,16.30
2023-03-22T11:02:53.083Z,16.26
2023-03-22T11:05:23.827Z,16.27
2023-03-22T11:07:51.300Z,16.28
2023-03-22T11:10:33.277Z,16.37
2023-03-22T11:13:09.973Z,16.48
2023-03-22T11:15:41.020Z,16.52
2023-03-22T11:18:13.118Z,16.77
2023-03-22T11:20:42.496Z,17.07
2023-03-22T11:23:18.281Z,17.37
2023-03-22T11:25:48.043Z,17.71
2023-03-22T11:28:21.791Z,18.06
2023-03-22T11:31:02.613Z,18.34
2023-03-22T11:33:30.058Z,18.42
2023-03-22T11:35:59.759Z,18.39
2023-03-22T11:38:41.906Z,18.34
2023-03-22T11:41:20.162Z,18.26
2023-03-22T11:43:52.769Z,17.95
2023-03-22T11:46:21.449Z,17.63
2023-03-22T11:48:51.831Z,17.38
2023-03-22T11:51:28.452Z,17.07
2023-03-22T11:54:00.820Z,16.77
2023-03-22T11:56:30.468Z,16.65
2023-03-22T11:59:07.305Z,16.56
2023-03-22T12:01:43.336Z,16.44
2023-03-22T12:04:16.617Z,16.41
2023-03-22T12:06:43.885Z,16.33
2023-03-22T12:09:26.030Z,16.24
2023-03-22T12:11:57.397Z,16.14
2023-03-22T12:14:40.801Z,15.96
2023-03-22T12:17:30.431Z,15.95
2023-03-22T12:20:36.592Z,16.04
2023-03-22T12:23:12.664Z,16.12
2023-03-22T12:25:42.125Z,16.17
2023-03-22T12:28:16.452Z,16.25
2023-03-22T12:30:53.634Z,16.27
2023-03-22T12:33:43.397Z,16.42
2023-03-22T12:36:16.582Z,16.93
2023-03-22T12:38:54.605Z,17.40
2023-03-22T12:41:38.857Z,17.66
2023-03-22T12:44:18.995Z,17.76
2023-03-22T12:46:57.385Z,17.78
2023-03-22T12:49:55.065Z,17.59
2023-03-22T12:52:45.160Z,17.13
2023-03-22T12:55:22.161Z,16.77
2023-03-22T12:57:52.688Z,16.60
2023-03-22T13:00:33.484Z,16.74
2023-03-22T13:03:15.754Z,17.11
2023-03-22T13:05:45.963Z,17.51
2023-03-22T13:08:13.618Z,17.74
2023-03-22T13:10:49.842Z,17.99
2023-03-22T13:13:23.369Z,18.39
2023-03-22T13:16:12.580Z,18.57
2023-03-22T13:18:42.630Z,18.62
2023-03-22T13:21:23.239Z,18.67
2023-03-22T13:23:58.086Z,18.64
2023-03-22T13:26:32.376Z,18.44
2023-03-22T13:29:02.090Z,18.08
2023-03-22T13:31:43.110Z,17.58
2023-03-22T13:34:20.752Z,17.49
2023-03-22T13:36:54.062Z,17.58
2023-03-22T13:39:25.297Z,18.03
2023-03-22T13:42:22.009Z,18.51
2023-03-22T13:44:58.900Z,18.88
2023-03-22T13:47:35.654Z,19.43
2023-03-22T13:50:14.734Z,19.50
2023-03-22T13:52:51.622Z,19.74
2023-03-22T13:55:52.000Z,19.85
2023-03-22T13:58:37.343Z,19.76
2023-03-22T14:01:29.642Z,19.54
2023-03-22T14:04:03.563Z,19.52
2023-03-22T14:06:42.174Z,19.85
2023-03-22T14:09:27.956Z,20.06
2023-03-22T14:12:21.510Z,19.97
2023-03-22T14:14:57.692Z,19.84
2023-03-22T14:17:34.403Z,19.63
2023-03-22T14:20:04.764Z,19.34
2023-03-22T14:52:49.883Z,16.95
2023-03-22T14:55:27.012Z,16.90
2023-03-22T14:57:59.839Z,16.82
2023-03-22T15:00:28.527Z,16.77
2023-03-22T15:02:56.172Z,16.69
2023-03-22T15:05:28.743Z,16.73
2023-03-22T15:08:13.543Z,16.72
2023-03-22T15:10:41.433Z,16.68
2023-03-22T15:13:12.537Z,16.63
2023-03-22T15:15:42.487Z,16.55
2023-03-22T15:18:15.157Z,16.55
2023-03-22T15:20:48.156Z,16.62
2023-03-22T15:23:31.866Z,16.71
2023-03-22T15:26:01.070Z,16.74
2023-03-22T15:28:32.617Z,16.77
2023-03-22T15:31:02.374Z,16.79
2023-03-22T15:33:39.395Z,16.77
2023-03-22T15:36:08.129Z,16.68
2023-03-22T15:38:46.653Z,16.66
2023-03-22T15:41:27.258Z,16.64
2023-03-22T15:44:14.630Z,16.62
2023-03-22T15:46:52.997Z,16.63
2023-03-22T15:49:27.640Z,16.60
2023-03-22T15:51:54.777Z,16.58
2023-03-22T15:54:30.467Z,16.57
2023-03-22T15:57:09.187Z,16.53
2023-03-22T15:59:50.735Z,16.49
2023-03-22T16:02:27.681Z,16.42
2023-03-22T16:04:55.832Z,16.39
2023-03-22T16:07:25.492Z,16.35
2023-03-22T16:09:53.844Z,16.40
2023-03-22T16:12:22.269Z,16.29
2023-03-22T16:14:51.074Z,16.18
2023-03-22T16:17:25.290Z,16.06
2023-03-22T16:19:53.430Z,16.01
2023-03-22T16:22:21.745Z,15.91
2023-03-22T16:24:50.593Z,15.87
2023-03-22T16:27:20.202Z,15.83
2023-03-22T16:29:48.585Z,15.81
2023-03-22T16:32:20.979Z,15.75
2023-03-22T16:34:48.204Z,15.71
2023-03-22T16:37:18.383Z,15.70
2023-03-22T16:39:47.760Z,15.66
2023-03-22T16:42:21.338Z,15.63
2023-03-22T16:44:56.175Z,15.61
2023-03-22T16:47:26.628Z,15.60
2023-03-22T16:49:54.659Z,15.57
2023-03-22T16:52:27.560Z,15.57
2023-03-22T16:54:55.131Z,15.50
2023-03-22T16:57:27.487Z,15.47
2023-03-22T16:59:55.208Z,15.46
2023-03-22T17:02:33.545Z,15.46
2023-03-22T17:05:00.669Z,15.38
2023-03-22T17:07:32.803Z,15.37
2023-03-22T17:10:01.342Z,15.33
2023-03-22T17:12:31.310Z,15.27
2023-03-22T17:15:02.541Z,15.21
2023-03-22T17:17:30.038Z,15.13
2023-03-22T17:19:57.828Z,15.11
2023-03-22T17:22:24.716Z,15.07
2023-03-22T17:24:51.924Z,15.05
2023-03-22T17:27:19.087Z,15.01
2023-03-22T17:29:46.014Z,14.98
2023-03-22T17:32:18.274Z,14.97
2023-03-22T17:34:56.334Z,14.89
2023-03-22T17:37:23.546Z,14.88
2023-03-22T17:42:28.288Z,14.79
2023-03-22T17:44:57.700Z,14.75
2023-03-22T17:49:57.277Z,14.57
2023-03-22T17:52:24.297Z,14.51
2023-03-22T17:55:12.699Z,14.47
2023-03-22T17:58:18.943Z,14.39
2023-03-22T18:00:26.378Z,14.36
2023-03-22T18:02:54.225Z,14.27
2023-03-22T18:05:33.557Z,14.23
2023-03-22T18:08:22.297Z,14.17
2023-03-22T18:10:48.664Z,14.13
2023-03-22T18:13:16.026Z,14.07
2023-03-22T18:15:43.149Z,14.02
2023-03-22T18:18:10.465Z,13.96
2023-03-22T18:20:51.222Z,13.88
2023-03-22T18:23:24.595Z,13.87
2023-03-22T18:25:58.384Z,13.86
2023-03-22T18:28:25.555Z,13.79
2023-03-22T18:30:52.671Z,13.79
2023-03-22T18:33:20.049Z,13.81
2023-03-22T18:35:52.161Z,13.80
2023-03-22T18:38:48.900Z,13.81
2023-03-22T18:43:47.267Z,13.82
2023-03-22T18:46:19.221Z,13.81
2023-03-22T18:48:46.548Z,13.81
2023-03-22T18:51:13.745Z,13.81
2023-03-22T18:53:41.160Z,13.81
2023-03-22T18:56:09.858Z,13.80
2023-03-22T18:58:36.942Z,13.76
2023-03-22T19:01:05.754Z,13.82
2023-03-22T19:03:35.726Z,13.81
2023-03-22T19:06:04.917Z,13.80
2023-03-22T19:08:31.883Z,13.82
2023-03-22T19:10:58.816Z,13.82
2023-03-22T19:13:25.852Z,13.87
2023-03-22T19:15:53.370Z,13.90
2023-03-22T19:18:20.432Z,13.93
2023-03-22T19:23:16.089Z,13.97
2023-03-22T19:25:43.471Z,14.00
2023-03-22T19:28:11.514Z,14.01
2023-03-22T19:30:38.904Z,14.06
2023-03-22T19:33:27.684Z,14.10
2023-03-22T19:35:53.845Z,14.15
2023-03-22T19:38:21.645Z,14.15
2023-03-22T19:41:33.766Z,14.17
2023-03-22T19:43:38.338Z,14.20
2023-03-22T19:46:06.435Z,14.20
2023-03-22T19:48:33.941Z,14.21
2023-03-22T19:51:04.489Z,14.21
2023-03-22T19:54:08.371Z,14.21
2023-03-22T19:56:19.818Z,14.19
2023-03-22T19:58:47.148Z,14.18
2023-03-22T20:01:14.548Z,14.19
2023-03-22T20:03:41.653Z,14.18
2023-03-22T20:06:11.484Z,14.18
2023-03-22T20:08:40.247Z,14.17
2023-03-22T20:11:09.512Z,14.15
2023-03-22T20:13:42.747Z,14.13
2023-03-22T20:16:10.032Z,14.14
2023-03-22T20:18:37.634Z,14.13
2023-03-22T20:21:04.818Z,14.13
2023-03-22T20:23:32.735Z,14.12
2023-03-22T20:26:02.383Z,14.07
2023-03-22T20:28:33.012Z,14.11
2023-03-22T20:31:10.828Z,14.10
2023-03-22T20:33:37.767Z,14.09
2023-03-22T20:36:07.235Z,14.09
2023-03-22T20:38:34.805Z,14.09
2023-03-22T20:41:02.053Z,14.09
2023-03-22T20:43:29.158Z,14.05
2023-03-22T20:45:56.010Z,14.07
2023-03-22T20:48:23.414Z,14.04
2023-03-22T20:50:55.699Z,14.07
2023-03-22T20:53:23.281Z,14.05
2023-03-22T20:55:51.882Z,14.07
2023-03-22T20:58:19.005Z,14.04
2023-03-22T21:00:46.376Z,14.07
2023-03-22T21:03:13.845Z,14.07
2023-03-22T21:05:42.529Z,14.08
2023-03-22T21:08:10.950Z,14.08
2023-03-22T21:10:38.169Z,14.10
2023-03-22T21:13:05.156Z,14.10
2023-03-22T21:15:32.149Z,14.09
2023-03-22T21:17:59.097Z,14.11
2023-03-22T21:20:32.513Z,14.14
2023-03-22T21:22:59.891Z,14.14
2023-03-22T21:25:27.085Z,14.14
2023-03-22T21:27:54.306Z,14.09
2023-03-22T21:30:21.269Z,14.08
2023-03-22T21:32:48.180Z,14.06
2023-03-22T21:35:15.045Z,14.08
2023-03-22T21:37:42.017Z,14.09
2023-03-22T21:40:09.671Z,14.09
2023-03-22T21:42:37.059Z,14.07
2023-03-22T21:45:05.377Z,14.07
2023-03-22T21:47:34.365Z,14.07
2023-03-22T21:50:01.417Z,14.05
2023-03-22T21:52:29.781Z,14.05
2023-03-22T21:54:58.997Z,14.04
2023-03-22T21:57:27.474Z,14.04
2023-03-22T21:59:55.250Z,14.04
2023-03-22T22:02:24.520Z,14.02
2023-03-22T22:04:52.768Z,14.03
2023-03-22T22:07:21.943Z,13.94
2023-03-22T22:09:49.759Z,13.96
2023-03-22T22:12:17.350Z,13.92
2023-03-22T22:14:44.879Z,13.92
2023-03-22T22:17:13.492Z,13.88
2023-03-22T22:19:40.895Z,13.83
2023-03-22T22:22:07.986Z,13.78
2023-03-22T22:24:35.322Z,13.73
2023-03-22T22:27:02.268Z,13.66
2023-03-22T22:29:30.351Z,13.60
2023-03-22T22:31:57.434Z,13.59
2023-03-22T22:34:25.713Z,13.57
2023-03-22T22:36:53.014Z,13.55
2023-03-22T22:39:20.164Z,13.54
2023-03-22T22:41:48.205Z,13.52
2023-03-22T22:44:16.670Z,13.50
2023-03-22T22:46:43.639Z,13.47
2023-03-22T22:49:15.442Z,13.45
2023-03-22T22:51:43.917Z,13.42
2023-03-22T22:54:10.991Z,13.44
2023-03-22T22:56:41.495Z,13.45
2023-03-22T22:59:08.775Z,13.45
2023-03-22T23:01:36.342Z,13.45
2023-03-22T23:04:03.455Z,13.46
2023-03-22T23:06:31.971Z,13.47
2023-03-22T23:09:03.520Z,13.50
2023-03-22T23:11:31.549Z,13.49
2023-03-22T23:14:04.009Z,13.56
2023-03-22T23:16:39.261Z,13.58
2023-03-22T23:19:07.054Z,13.54
2023-03-22T23:21:47.577Z,13.62
2023-03-22T23:24:15.294Z,13.61
2023-03-22T23:26:50.693Z,13.63
2023-03-22T23:29:17.984Z,13.62
2023-03-22T23:31:46.246Z,13.64
2023-03-22T23:34:16.026Z,13.67
2023-03-22T23:36:49.872Z,13.67
2023-03-22T23:39:22.348Z,13.67
2023-03-22T23:41:49.970Z,13.71
2023-03-22T23:44:19.110Z,13.69
2023-03-22T23:46:47.104Z,13.68
2023-03-22T23:49:16.092Z,13.67
2023-03-22T23:51:43.069Z,13.66
2023-03-22T23:54:10.171Z,13.65
2023-03-22T23:56:37.968Z,13.65
2023-03-22T23:59:05.192Z,13.64
